createdAt,value
2023-01-21T00:02:11.156Z,2.95
2023-01-21T00:04:40.085Z,3.25
2023-01-21T00:07:13.152Z,3.60
2023-01-21T00:09:41.527Z,3.35
2023-01-21T00:12:10.014Z,2.83
2023-01-21T00:14:38.279Z,3.00
2023-01-21T00:17:06.850Z,3.30
2023-01-21T00:19:35.167Z,4.10
2023-01-21T00:22:03.494Z,3.08
2023-01-21T00:24:33.229Z,3.10
2023-01-21T00:27:01.450Z,3.03
2023-01-21T00:29:29.762Z,2.72
2023-01-21T00:31:58.199Z,2.35
2023-01-21T00:34:26.611Z,1.83
2023-01-21T00:36:56.626Z,3.05
2023-01-21T00:39:25.186Z,2.97
2023-01-21T00:41:54.932Z,2.95
2023-01-21T00:44:23.194Z,2.20
2023-01-21T00:46:51.537Z,2.78
2023-01-21T00:49:19.847Z,2.13
2023-01-21T00:51:50.805Z,2.63
2023-01-21T00:54:19.250Z,2.75
2023-01-21T00:56:47.527Z,1.83
2023-01-21T00:59:17.674Z,3.72
2023-01-21T01:01:46.000Z,3.03
2023-01-21T01:04:14.625Z,2.38
2023-01-21T01:06:42.953Z,2.03
2023-01-21T01:09:13.043Z,1.48
2023-01-21T01:11:41.979Z,2.70
2023-01-21T01:14:10.362Z,1.33
2023-01-21T01:16:40.029Z,1.60
2023-01-21T01:19:08.359Z,3.00
2023-01-21T01:21:36.733Z,2.55
2023-01-21T01:24:06.274Z,2.35
2023-01-21T01:26:35.612Z,2.08
2023-01-21T01:29:04.479Z,1.92
2023-01-21T01:31:33.005Z,2.55
2023-01-21T01:34:02.782Z,2.45
2023-01-21T01:36:31.082Z,2.00
2023-01-21T01:38:59.338Z,2.78
2023-01-21T01:41:30.161Z,2.17
2023-01-21T01:44:00.850Z,2.53
2023-01-21T01:46:31.006Z,1.73
2023-01-21T01:49:05.853Z,2.10
2023-01-21T01:51:41.807Z,2.30
2023-01-21T01:54:10.807Z,2.28
2023-01-21T01:56:41.148Z,1.83
2023-01-21T01:59:09.464Z,3.00
2023-01-21T02:01:38.262Z,2.75
2023-01-21T02:04:10.169Z,1.98
2023-01-21T02:06:39.787Z,1.95
2023-01-21T02:09:10.115Z,1.95
2023-01-21T02:11:38.716Z,1.75
2023-01-21T02:14:07.665Z,2.13
2023-01-21T02:16:56.647Z,2.50
2023-01-21T02:19:57.427Z,2.70
2023-01-21T02:22:31.702Z,1.88
2023-01-21T02:25:26.154Z,2.38
2023-01-21T02:28:14.394Z,1.95
2023-01-21T02:30:56.621Z,2.33
2023-01-21T02:33:54.723Z,1.77
2023-01-21T02:36:35.506Z,1.63
2023-01-21T02:39:09.167Z,1.27
2023-01-21T02:41:48.087Z,2.55
2023-01-21T02:44:21.626Z,1.65
2023-01-21T02:46:52.723Z,1.40
2023-01-21T02:49:25.783Z,1.70
2023-01-21T02:51:54.238Z,2.03
2023-01-21T02:54:49.207Z,2.35
2023-01-21T02:57:21.618Z,1.92
2023-01-21T02:59:51.468Z,2.57
2023-01-21T03:02:28.661Z,1.95
2023-01-21T03:05:05.092Z,2.22
2023-01-21T03:07:35.367Z,2.50
2023-01-21T03:10:07.277Z,1.40
2023-01-21T03:12:40.393Z,2.25
2023-01-21T03:15:29.486Z,0.98
2023-01-21T03:18:01.069Z,1.30
2023-01-21T03:20:36.662Z,1.70
2023-01-21T03:23:07.932Z,1.45
2023-01-21T03:25:36.878Z,1.73
2023-01-21T03:28:08.322Z,1.30
2023-01-21T03:30:37.650Z,1.00
2023-01-21T03:33:06.503Z,1.52
2023-01-21T03:35:39.000Z,0.80
2023-01-21T03:38:14.451Z,4.68
2023-01-21T03:40:47.033Z,1.30
2023-01-21T03:43:15.446Z,1.55
2023-01-21T03:45:48.030Z,1.30
2023-01-21T03:48:21.050Z,1.48
2023-01-21T03:50:55.952Z,1.52
2023-01-21T03:53:24.623Z,1.60
2023-01-21T03:55:53.253Z,1.00
2023-01-21T03:58:23.428Z,1.48
2023-01-21T04:00:51.755Z,1.27
2023-01-21T04:03:20.149Z,1.85
2023-01-21T04:05:50.302Z,1.50
2023-01-21T04:08:22.415Z,2.38
2023-01-21T04:10:50.829Z,1.88
2023-01-21T04:13:19.185Z,1.38
2023-01-21T04:15:47.706Z,1.60
2023-01-21T04:18:16.125Z,1.20
2023-01-21T04:20:44.346Z,1.65
2023-01-21T04:23:12.944Z,1.73
2023-01-21T04:25:42.717Z,0.88
2023-01-21T04:28:11.065Z,1.60
2023-01-21T04:30:39.395Z,1.88
2023-01-21T04:33:09.583Z,2.60
2023-01-21T04:35:37.807Z,2.00
2023-01-21T04:38:06.332Z,1.58
2023-01-21T04:40:34.723Z,3.15
2023-01-21T04:43:09.450Z,1.85
2023-01-21T04:45:38.204Z,2.70
2023-01-21T04:48:07.714Z,1.88
2023-01-21T04:50:36.174Z,2.30
2023-01-21T04:53:04.579Z,1.45
2023-01-21T04:55:32.886Z,2.15
2023-01-21T04:58:01.163Z,1.50
2023-01-21T05:00:30.928Z,1.90
2023-01-21T05:02:59.326Z,1.80
2023-01-21T05:05:27.659Z,2.08
2023-01-21T05:07:56.165Z,2.13
2023-01-21T05:10:24.462Z,2.22
2023-01-21T05:12:52.843Z,1.20
2023-01-21T05:15:21.450Z,1.88
2023-01-21T05:17:51.584Z,0.60
2023-01-21T05:20:20.234Z,1.50
2023-01-21T05:22:49.041Z,1.10
2023-01-21T05:25:17.979Z,0.95
2023-01-21T05:27:46.358Z,1.50
2023-01-21T05:30:15.292Z,1.35
2023-01-21T05:32:43.809Z,1.77
2023-01-21T05:35:14.057Z,1.42
2023-01-21T05:37:42.462Z,1.50
2023-01-21T05:40:11.941Z,1.20
2023-01-21T05:42:40.915Z,1.50
2023-01-21T05:45:10.978Z,1.40
2023-01-21T05:47:39.528Z,1.20
2023-01-21T05:50:09.362Z,1.00
2023-01-21T05:52:39.737Z,1.73
2023-01-21T05:55:09.021Z,2.10
2023-01-21T05:57:39.146Z,1.65
2023-01-21T06:00:08.919Z,1.92
2023-01-21T06:02:37.367Z,1.63
2023-01-21T06:05:08.554Z,2.35
2023-01-21T06:07:39.434Z,1.67
2023-01-21T06:10:09.358Z,1.33
2023-01-21T06:12:37.743Z,1.13
2023-01-21T06:15:06.955Z,1.20
2023-01-21T06:17:35.245Z,1.50
2023-01-21T06:20:03.583Z,2.00
2023-01-21T06:22:32.490Z,0.88
2023-01-21T06:25:03.873Z,1.15
2023-01-21T06:27:32.431Z,2.03
2023-01-21T06:30:00.704Z,1.67
2023-01-21T06:32:29.066Z,1.27
2023-01-21T06:34:57.496Z,1.77
2023-01-21T06:37:25.884Z,1.38
2023-01-21T06:39:54.274Z,1.10
2023-01-21T06:42:24.138Z,1.98
2023-01-21T06:44:52.590Z,2.28
2023-01-21T06:47:21.087Z,2.05
2023-01-21T06:49:49.522Z,1.27
2023-01-21T06:52:18.361Z,1.85
2023-01-21T06:54:48.360Z,1.30
2023-01-21T06:57:16.972Z,1.70
2023-01-21T06:59:46.630Z,0.43
2023-01-21T07:02:14.988Z,1.40
2023-01-21T07:04:43.542Z,1.45
2023-01-21T07:07:11.851Z,1.33
2023-01-21T07:09:40.146Z,1.20
2023-01-21T07:12:11.353Z,0.70
2023-01-21T07:14:39.650Z,1.27
2023-01-21T07:17:09.468Z,1.58
2023-01-21T07:19:37.854Z,1.38
2023-01-21T07:22:07.778Z,1.50
2023-01-21T07:24:36.085Z,1.48
2023-01-21T07:27:06.417Z,1.90
2023-01-21T07:29:35.355Z,1.98
2023-01-21T07:32:03.824Z,1.92
2023-01-21T07:34:33.649Z,1.65
2023-01-21T07:37:01.975Z,1.40
2023-01-21T07:39:30.403Z,2.28
2023-01-21T07:41:58.797Z,1.52
2023-01-21T07:44:29.735Z,1.75
2023-01-21T07:46:58.391Z,1.35
2023-01-21T07:49:26.675Z,1.90
2023-01-21T07:51:59.242Z,1.58
2023-01-21T07:54:30.496Z,1.40
2023-01-21T07:56:59.075Z,0.98
2023-01-21T07:59:27.885Z,2.22
2023-01-21T08:01:58.052Z,2.17
2023-01-21T08:04:26.746Z,1.42
2023-01-21T08:06:57.214Z,0.95
2023-01-21T08:09:27.033Z,2.30
2023-01-21T08:11:57.870Z,0.98
2023-01-21T08:14:26.296Z,0.50
2023-01-21T08:16:54.734Z,2.03
2023-01-21T08:19:23.087Z,1.90
2023-01-21T08:21:51.415Z,0.60
2023-01-21T08:24:20.035Z,1.60
2023-01-21T08:26:52.617Z,1.92
2023-01-21T08:29:21.246Z,1.25
2023-01-21T08:31:50.056Z,1.35
2023-01-21T08:34:19.226Z,1.67
2023-01-21T08:36:47.749Z,1.23
2023-01-21T08:39:16.762Z,1.77
2023-01-21T08:41:46.080Z,2.60
2023-01-21T08:44:15.877Z,1.50
2023-01-21T08:46:44.200Z,1.88
2023-01-21T08:49:17.377Z,1.85
2023-01-21T08:51:48.595Z,1.70
2023-01-21T08:54:17.395Z,2.05
2023-01-21T08:56:45.930Z,2.05
2023-01-21T08:59:18.434Z,2.15
2023-01-21T09:01:46.758Z,1.48
2023-01-21T09:04:15.171Z,0.95
2023-01-21T09:06:43.845Z,1.55
2023-01-21T09:09:12.761Z,1.95
2023-01-21T09:11:41.063Z,2.17
2023-01-21T09:14:09.530Z,1.02
2023-01-21T09:16:39.364Z,1.90
2023-01-21T09:19:07.701Z,1.45
2023-01-21T09:21:36.117Z,2.55
2023-01-21T09:24:04.647Z,2.15
2023-01-21T09:26:32.963Z,1.90
2023-01-21T09:29:04.452Z,1.25
2023-01-21T09:31:33.035Z,2.08
2023-01-21T09:34:05.505Z,2.60
2023-01-21T09:36:35.828Z,2.15
2023-01-21T09:39:04.703Z,2.13
2023-01-21T09:41:37.104Z,1.75
2023-01-21T09:44:13.449Z,2.07
2023-01-21T09:46:44.718Z,3.05
2023-01-21T09:49:18.900Z,2.42
2023-01-21T09:51:52.623Z,2.28
2023-01-21T09:54:27.759Z,1.08
2023-01-21T09:57:20.840Z,1.63
2023-01-21T10:00:01.604Z,2.28
2023-01-21T10:02:41.430Z,2.13
2023-01-21T10:05:32.500Z,0.90
2023-01-21T10:08:06.685Z,2.00
2023-01-21T10:10:43.460Z,1.50
2023-01-21T10:13:30.288Z,1.17
2023-01-21T10:16:03.020Z,1.25
2023-01-21T10:18:33.934Z,1.95
2023-01-21T10:21:08.279Z,1.63
2023-01-21T10:23:42.691Z,1.10
2023-01-21T10:26:13.321Z,1.45
2023-01-21T10:28:43.774Z,1.63
2023-01-21T10:31:20.150Z,1.70
2023-01-21T10:33:49.009Z,0.98
2023-01-21T10:36:41.664Z,1.60
2023-01-21T10:39:16.949Z,0.70
2023-01-21T10:42:06.726Z,2.10
2023-01-21T10:44:42.593Z,1.45
2023-01-21T10:47:17.465Z,1.48
2023-01-21T10:49:54.389Z,1.23
2023-01-21T10:52:32.682Z,1.95
2023-01-21T10:55:04.884Z,1.58
2023-01-21T10:57:43.996Z,0.83
2023-01-21T11:00:20.416Z,1.25
2023-01-21T11:02:53.713Z,2.55
2023-01-21T11:07:51.935Z,1.48
2023-01-21T11:10:23.514Z,1.30
2023-01-21T11:12:52.993Z,2.10
2023-01-21T11:15:22.308Z,2.70
2023-01-21T11:17:53.957Z,1.58
2023-01-21T11:20:24.796Z,1.88
2023-01-21T11:22:54.608Z,1.48
2023-01-21T11:25:28.835Z,2.17
2023-01-21T11:27:58.845Z,1.58
2023-01-21T11:30:49.590Z,1.55
2023-01-21T11:33:27.873Z,1.60
2023-01-21T11:35:58.553Z,2.25
2023-01-21T11:38:34.510Z,1.75
2023-01-21T11:41:05.319Z,1.52
2023-01-21T11:43:41.736Z,1.77
2023-01-21T11:46:28.372Z,1.73
2023-01-21T11:48:58.847Z,1.73
2023-01-21T11:51:27.365Z,1.63
2023-01-21T11:54:12.468Z,1.98
2023-01-21T11:56:43.383Z,1.70
2023-01-21T11:59:22.542Z,1.27
2023-01-21T12:01:57.376Z,1.50
2023-01-21T12:04:26.716Z,0.82
2023-01-21T12:06:58.229Z,1.40
2023-01-21T12:09:28.664Z,2.17
2023-01-21T12:12:24.317Z,1.95
2023-01-21T12:14:56.780Z,2.13
2023-01-21T12:17:40.185Z,1.55
2023-01-21T12:20:20.118Z,1.98
2023-01-21T12:22:58.210Z,1.20
2023-01-21T12:25:42.466Z,1.95
2023-01-21T12:28:26.525Z,1.83
2023-01-21T12:31:03.833Z,1.48
2023-01-21T12:33:42.808Z,1.95
2023-01-21T12:36:17.232Z,1.95
2023-01-21T12:38:48.620Z,1.73
2023-01-21T12:41:21.669Z,1.33
2023-01-21T12:43:54.369Z,2.03
2023-01-21T12:46:26.121Z,1.73
2023-01-21T12:49:02.519Z,0.90
2023-01-21T12:51:34.338Z,1.85
2023-01-21T12:54:07.552Z,1.65
2023-01-21T12:56:41.634Z,1.73
2023-01-21T12:59:17.062Z,0.93
2023-01-21T13:01:50.596Z,1.27
2023-01-21T13:04:34.050Z,1.10
2023-01-21T13:07:11.486Z,2.05
2023-01-21T13:09:48.942Z,1.15
2023-01-21T13:12:21.538Z,1.23
2023-01-21T13:14:54.465Z,1.80
2023-01-21T13:17:24.976Z,1.58
2023-01-21T13:19:53.358Z,1.90
2023-01-21T13:22:30.653Z,1.83
2023-01-21T13:25:06.319Z,1.65
2023-01-21T13:27:44.277Z,1.50
2023-01-21T13:30:21.388Z,1.40
2023-01-21T13:32:54.189Z,0.90
2023-01-21T13:35:33.504Z,1.90
2023-01-21T13:38:07.786Z,1.50
2023-01-21T13:40:44.325Z,1.45
2023-01-21T13:43:25.709Z,2.50
2023-01-21T13:46:04.751Z,0.98
2023-01-21T13:49:05.207Z,1.83
2023-01-21T13:51:45.426Z,1.58
2023-01-21T13:54:25.921Z,2.70
2023-01-21T13:57:09.296Z,2.25
2023-01-21T13:59:41.067Z,1.20
2023-01-21T14:02:12.507Z,1.08
2023-01-21T14:04:53.591Z,0.98
2023-01-21T14:07:29.889Z,2.13
2023-01-21T14:10:03.224Z,1.63
2023-01-21T14:12:44.659Z,2.22
2023-01-21T14:15:34.142Z,2.40
2023-01-21T14:18:14.876Z,1.50
2023-01-21T14:21:15.694Z,1.60
2023-01-21T14:23:54.354Z,2.50
2023-01-21T14:26:34.985Z,1.30
2023-01-21T14:29:10.271Z,1.20
2023-01-21T14:31:45.888Z,2.05
2023-01-21T14:34:18.241Z,2.45
2023-01-21T14:36:52.402Z,1.95
2023-01-21T14:39:34.856Z,1.30
2023-01-21T14:42:04.424Z,1.70
2023-01-21T14:44:41.321Z,1.58
2023-01-21T14:47:18.498Z,1.92
2023-01-21T14:49:48.610Z,2.25
2023-01-21T14:52:19.565Z,2.65
2023-01-21T14:54:51.302Z,2.85
2023-01-21T14:57:38.597Z,2.83
2023-01-21T15:00:14.476Z,2.90
2023-01-21T15:02:46.323Z,2.78
2023-01-21T15:05:25.597Z,2.80
2023-01-21T15:08:07.949Z,2.80
2023-01-21T15:10:38.671Z,2.35
2023-01-21T15:13:09.301Z,2.80
2023-01-21T15:15:59.468Z,2.70
2023-01-21T15:18:37.932Z,2.15
2023-01-21T15:21:37.469Z,3.20
2023-01-21T15:24:26.073Z,1.58
2023-01-21T15:27:19.823Z,2.80
2023-01-21T15:30:13.719Z,2.08
2023-01-21T15:35:23.915Z,2.30
2023-01-21T15:37:53.713Z,1.75
2023-01-21T15:40:25.957Z,2.63
2023-01-21T15:42:58.718Z,2.30
2023-01-21T15:45:32.554Z,2.25
2023-01-21T15:48:30.114Z,2.83
2023-01-21T15:51:20.606Z,1.95
2023-01-21T15:54:00.813Z,3.08
2023-01-21T15:56:49.025Z,2.00
2023-01-21T15:59:29.032Z,2.78
2023-01-21T16:02:20.773Z,1.58
2023-01-21T16:04:59.948Z,2.95
2023-01-21T16:07:40.631Z,2.38
2023-01-21T16:10:16.436Z,2.03
2023-01-21T16:12:55.780Z,1.15
2023-01-21T16:15:35.204Z,1.50
2023-01-21T16:18:11.545Z,2.03
2023-01-21T16:20:44.268Z,2.05
2023-01-21T16:23:17.381Z,2.28
2023-01-21T16:25:49.540Z,3.35
2023-01-21T16:28:24.231Z,2.30
2023-01-21T16:30:57.625Z,2.00
2023-01-21T16:33:28.777Z,1.83
2023-01-21T16:36:00.844Z,2.35
2023-01-21T16:38:32.554Z,1.83
2023-01-21T16:41:22.549Z,2.00
2023-01-21T16:43:52.162Z,0.98
2023-01-21T16:46:25.307Z,1.17
2023-01-21T16:49:00.348Z,1.90
2023-01-21T16:51:34.183Z,1.80
2023-01-21T16:54:29.793Z,2.30
2023-01-21T16:57:02.370Z,0.82
2023-01-21T16:59:33.819Z,1.02
2023-01-21T17:02:02.692Z,1.10
2023-01-21T17:04:36.393Z,1.80
2023-01-21T17:07:07.779Z,2.45
2023-01-21T17:09:38.236Z,1.88
2023-01-21T17:12:08.717Z,1.00
2023-01-21T17:14:38.277Z,1.45
2023-01-21T17:17:08.803Z,1.85
2023-01-21T17:19:38.526Z,1.30
2023-01-21T17:22:16.432Z,2.88
2023-01-21T17:24:56.567Z,1.63
2023-01-21T17:27:26.541Z,1.67
2023-01-21T17:29:55.178Z,0.82
2023-01-21T17:32:27.950Z,1.70
2023-01-21T17:35:12.007Z,0.98
2023-01-21T17:37:53.055Z,0.65
2023-01-21T17:40:31.828Z,1.70
2023-01-21T17:43:01.599Z,1.38
2023-01-21T17:45:33.152Z,1.20
2023-01-21T17:48:11.731Z,1.70
2023-01-21T17:50:47.484Z,1.30
2023-01-21T17:53:22.469Z,1.52
2023-01-21T17:56:07.078Z,1.13
2023-01-21T17:58:46.032Z,1.17
2023-01-21T18:01:19.122Z,1.73
2023-01-21T18:03:47.590Z,1.65
2023-01-21T18:06:19.381Z,1.83
2023-01-21T18:08:47.893Z,1.63
2023-01-21T18:11:18.693Z,1.85
2023-01-21T18:13:47.035Z,2.05
2023-01-21T18:16:15.612Z,1.35
2023-01-21T18:18:44.068Z,1.20
2023-01-21T18:21:19.788Z,2.30
2023-01-21T18:23:52.577Z,1.15
2023-01-21T18:26:29.502Z,1.88
2023-01-21T18:28:58.148Z,1.90
2023-01-21T18:31:27.253Z,1.65
2023-01-21T18:33:59.368Z,1.58
2023-01-21T18:36:28.705Z,2.22
2023-01-21T18:39:03.441Z,1.30
2023-01-21T18:41:42.523Z,1.33
2023-01-21T18:44:11.673Z,1.00
2023-01-21T18:46:43.531Z,1.55
2023-01-21T18:49:16.533Z,1.55
2023-01-21T18:51:45.056Z,2.30
2023-01-21T18:54:18.239Z,0.98
2023-01-21T18:56:51.422Z,2.45
2023-01-21T18:59:22.566Z,1.73
2023-01-21T19:01:51.794Z,1.48
2023-01-21T19:04:21.516Z,2.00
2023-01-21T19:06:50.620Z,2.20
2023-01-21T19:09:21.640Z,1.85
2023-01-21T19:11:51.618Z,1.95
2023-01-21T19:14:20.224Z,1.55
2023-01-21T19:16:50.350Z,1.05
2023-01-21T19:19:23.171Z,4.30
2023-01-21T19:21:51.528Z,2.55
2023-01-21T19:24:19.833Z,3.10
2023-01-21T19:26:50.891Z,2.53
2023-01-21T19:29:25.354Z,2.65
2023-01-21T19:31:55.210Z,3.13
2023-01-21T19:34:25.259Z,2.45
2023-01-21T19:36:53.842Z,2.25
2023-01-21T19:39:25.616Z,2.25
2023-01-21T19:42:07.237Z,1.75
2023-01-21T19:44:39.495Z,1.92
2023-01-21T19:47:10.771Z,1.85
2023-01-21T19:49:41.742Z,1.98
2023-01-21T19:52:11.324Z,2.17
2023-01-21T19:54:39.643Z,3.15
2023-01-21T19:57:12.478Z,2.40
2023-01-21T19:59:47.065Z,1.60
2023-01-21T20:02:16.591Z,1.23
2023-01-21T20:04:45.201Z,1.15
2023-01-21T20:07:14.618Z,2.90
2023-01-21T20:09:43.410Z,1.58
2023-01-21T20:12:13.011Z,1.15
2023-01-21T20:14:42.901Z,1.63
2023-01-21T20:17:13.720Z,1.60
2023-01-21T20:19:42.250Z,3.10
2023-01-21T20:22:11.102Z,2.20
2023-01-21T20:24:39.500Z,2.35
2023-01-21T20:27:10.696Z,2.65
2023-01-21T20:29:49.541Z,1.25
2023-01-21T20:32:26.406Z,3.17
2023-01-21T20:34:55.016Z,1.88
2023-01-21T20:37:23.515Z,2.67
2023-01-21T20:39:56.675Z,2.00
2023-01-21T20:42:26.280Z,2.00
2023-01-21T20:44:57.617Z,2.30
2023-01-21T20:47:43.288Z,1.70
2023-01-21T20:50:21.965Z,2.95
2023-01-21T20:52:54.045Z,2.72
2023-01-21T20:55:24.577Z,2.28
2023-01-21T20:57:57.372Z,2.42
2023-01-21T21:00:30.668Z,3.03
2023-01-21T21:05:31.386Z,3.25
2023-01-21T21:08:02.675Z,3.53
2023-01-21T21:10:36.328Z,2.85
2023-01-21T21:13:04.804Z,4.03
2023-01-21T21:15:37.553Z,3.38
2023-01-21T21:18:07.893Z,3.70
2023-01-21T21:20:38.976Z,4.15
2023-01-21T21:23:07.598Z,2.00
2023-01-21T21:25:41.489Z,1.17
2023-01-21T21:28:11.318Z,3.33
2023-01-21T21:30:42.288Z,2.22
2023-01-21T21:33:17.254Z,3.17
2023-01-21T21:35:46.995Z,2.88
2023-01-21T21:38:26.240Z,3.90
2023-01-21T21:40:54.637Z,1.60
2023-01-21T21:43:32.468Z,4.38
2023-01-21T21:46:24.220Z,2.80
2023-01-21T21:48:54.261Z,3.30
2023-01-21T21:51:28.022Z,2.78
2023-01-21T21:53:56.321Z,3.35
2023-01-21T21:56:28.298Z,3.30
2023-01-21T21:58:56.698Z,3.95
2023-01-21T22:01:27.351Z,4.18
2023-01-21T22:04:00.532Z,4.68
2023-01-21T22:06:36.522Z,3.97
2023-01-21T22:09:10.871Z,2.35
2023-01-21T22:11:39.315Z,4.68
2023-01-21T22:14:10.553Z,3.53
2023-01-21T22:16:40.209Z,3.65
2023-01-21T22:19:09.942Z,6.15
2023-01-21T22:21:38.284Z,3.70
2023-01-21T22:24:08.311Z,4.53
2023-01-21T22:26:36.885Z,3.35
2023-01-21T22:29:05.353Z,3.50
2023-01-21T22:31:34.087Z,3.70
2023-01-21T22:34:03.140Z,4.45
2023-01-21T22:36:33.071Z,3.40
2023-01-21T22:39:04.884Z,4.15
2023-01-21T22:41:34.037Z,4.45
2023-01-21T22:44:02.303Z,3.88
2023-01-21T22:46:31.555Z,2.72
2023-01-21T22:49:00.060Z,2.83
2023-01-21T22:51:33.154Z,3.85
2023-01-21T22:54:02.319Z,6.10
2023-01-21T22:56:50.419Z,3.55
2023-01-21T22:59:19.153Z,2.50
2023-01-21T23:01:48.898Z,4.25
2023-01-21T23:04:18.299Z,3.47
2023-01-21T23:06:54.989Z,4.63
2023-01-21T23:09:23.376Z,4.82
2023-01-21T23:11:52.853Z,2.53
2023-01-21T23:14:23.438Z,3.10
2023-01-21T23:16:55.298Z,4.40
2023-01-21T23:19:26.700Z,4.10
2023-01-21T23:22:00.892Z,5.07
2023-01-21T23:24:29.337Z,4.30
2023-01-21T23:26:57.725Z,2.97
2023-01-21T23:29:25.946Z,4.53
2023-01-21T23:31:54.308Z,4.05
2023-01-21T23:34:28.021Z,4.00
2023-01-21T23:36:57.853Z,3.83
2023-01-21T23:39:26.189Z,4.22
2023-01-21T23:41:55.053Z,4.47
2023-01-21T23:44:25.564Z,4.40
2023-01-21T23:46:55.897Z,3.83
2023-01-21T23:49:24.155Z,2.95
2023-01-21T23:51:54.242Z,4.18
2023-01-21T23:54:23.901Z,1.98
2023-01-21T23:56:52.191Z,2.75
2023-01-21T23:59:20.483Z,4.50
